createdAt,value
2023-02-02T00:00:07.682Z,8.30
2023-02-02T00:01:07.626Z,14.90
2023-02-02T00:02:07.616Z,15.50
2023-02-02T00:03:07.644Z,14.30
2023-02-02T00:04:07.603Z,13.20
2023-02-02T00:05:07.586Z,12.00
2023-02-02T00:06:07.539Z,14.30
2023-02-02T00:07:07.543Z,11.70
2023-02-02T00:08:07.504Z,9.10
2023-02-02T00:09:07.486Z,14.70
2023-02-02T00:10:07.494Z,10.80
2023-02-02T00:11:07.447Z,10.90
2023-02-02T00:12:07.429Z,14.80
2023-02-02T00:13:07.411Z,12.20
2023-02-02T00:14:07.394Z,12.60
2023-02-02T00:15:07.409Z,13.30
2023-02-02T00:16:07.415Z,13.10
2023-02-02T00:17:07.339Z,9.80
2023-02-02T00:18:07.320Z,10.20
2023-02-02T00:19:07.303Z,16.40
2023-02-02T00:20:07.309Z,13.00
2023-02-02T00:21:07.261Z,16.20
2023-02-02T00:22:07.247Z,12.20
2023-02-02T00:23:07.230Z,12.70
2023-02-02T00:24:07.218Z,8.50
2023-02-02T00:25:07.222Z,9.60
2023-02-02T00:26:07.176Z,12.20
2023-02-02T00:27:07.155Z,11.20
2023-02-02T00:28:07.136Z,14.30
2023-02-02T00:29:07.121Z,13.50
2023-02-02T00:30:07.138Z,12.90
2023-02-02T00:31:07.107Z,13.20
2023-02-02T00:32:07.070Z,10.00
2023-02-02T00:33:07.052Z,11.80
2023-02-02T00:34:07.027Z,13.80
2023-02-02T00:35:07.043Z,11.70
2023-02-02T00:36:06.994Z,12.10
2023-02-02T00:37:06.978Z,10.90
2023-02-02T00:38:06.965Z,12.10
2023-02-02T00:39:06.954Z,10.90
2023-02-02T00:40:06.952Z,10.20
2023-02-02T00:41:06.908Z,13.00
2023-02-02T00:42:06.891Z,9.30
2023-02-02T00:43:06.873Z,12.30
2023-02-02T00:44:06.855Z,13.80
2023-02-02T00:45:06.866Z,14.60
2023-02-02T00:46:06.877Z,12.10
2023-02-02T00:47:07.801Z,14.40
2023-02-02T00:48:06.779Z,8.60
2023-02-02T00:49:06.762Z,10.80
2023-02-02T00:50:06.781Z,12.80
2023-02-02T00:51:06.730Z,12.60
2023-02-02T00:52:06.710Z,10.80
2023-02-02T00:53:06.691Z,15.00
2023-02-02T00:54:06.688Z,14.20
2023-02-02T00:55:06.683Z,8.80
2023-02-02T00:56:06.641Z,13.90
2023-02-02T00:57:06.624Z,10.80
2023-02-02T00:58:06.601Z,14.10
2023-02-02T00:59:06.582Z,12.40
2023-02-02T01:00:06.594Z,12.70
2023-02-02T01:01:06.611Z,14.00
2023-02-02T01:02:06.620Z,13.50
2023-02-02T01:03:06.514Z,17.90
2023-02-02T01:04:06.495Z,15.20
2023-02-02T01:05:06.508Z,12.40
2023-02-02T01:06:06.465Z,12.70
2023-02-02T01:07:06.445Z,14.90
2023-02-02T01:08:06.427Z,10.00
2023-02-02T01:09:06.423Z,14.10
2023-02-02T01:10:06.429Z,17.40
2023-02-02T01:11:06.370Z,12.30
2023-02-02T01:12:06.357Z,14.00
2023-02-02T01:13:06.344Z,13.10
2023-02-02T01:14:06.325Z,14.60
2023-02-02T01:15:06.330Z,13.60
2023-02-02T01:16:06.309Z,12.60
2023-02-02T01:17:06.270Z,16.10
2023-02-02T01:18:06.252Z,12.50
2023-02-02T01:19:06.237Z,11.70
2023-02-02T01:20:06.243Z,12.00
2023-02-02T01:21:06.201Z,10.90
2023-02-02T01:22:06.178Z,10.40
2023-02-02T01:23:06.164Z,12.40
2023-02-02T01:24:06.144Z,15.50
2023-02-02T01:25:06.150Z,11.10
2023-02-02T01:26:06.107Z,11.60
2023-02-02T01:27:06.088Z,11.80
2023-02-02T01:28:06.093Z,11.90
2023-02-02T01:29:06.051Z,10.70
2023-02-02T01:30:06.060Z,12.00
2023-02-02T01:31:06.026Z,13.60
2023-02-02T01:32:06.044Z,13.80
2023-02-02T01:33:05.984Z,13.10
2023-02-02T01:34:05.969Z,11.90
2023-02-02T01:35:05.965Z,9.50
2023-02-02T01:36:05.941Z,9.90
2023-02-02T01:37:05.904Z,14.20
2023-02-02T01:38:05.892Z,14.40
2023-02-02T01:39:05.877Z,18.10
2023-02-02T01:40:05.878Z,13.20
2023-02-02T01:41:05.843Z,11.40
2023-02-02T01:42:05.808Z,17.00
2023-02-02T01:43:05.819Z,14.20
2023-02-02T01:44:05.775Z,9.70
2023-02-02T01:45:05.802Z,13.00
2023-02-02T01:46:05.798Z,12.00
2023-02-02T01:47:05.716Z,13.10
2023-02-02T01:48:05.700Z,13.30
2023-02-02T01:49:05.687Z,12.00
2023-02-02T01:50:05.667Z,12.80
2023-02-02T01:51:05.671Z,12.30
2023-02-02T01:52:05.627Z,11.50
2023-02-02T01:53:05.608Z,10.10
2023-02-02T01:54:05.590Z,12.90
2023-02-02T01:55:05.579Z,10.10
2023-02-02T01:56:05.599Z,12.20
2023-02-02T01:57:05.538Z,11.00
2023-02-02T01:58:05.517Z,14.00
2023-02-02T01:59:05.501Z,14.60
2023-02-02T02:00:05.483Z,16.60
2023-02-02T02:01:05.510Z,11.90
2023-02-02T02:02:05.482Z,14.10
2023-02-02T02:03:05.430Z,13.10
2023-02-02T02:04:05.409Z,11.90
2023-02-02T02:05:05.387Z,11.60
2023-02-02T02:06:05.415Z,11.50
2023-02-02T02:07:05.392Z,15.10
2023-02-02T02:08:05.334Z,11.80
2023-02-02T02:09:05.325Z,13.50
2023-02-02T02:10:05.301Z,13.40
2023-02-02T02:11:05.285Z,11.00
2023-02-02T02:12:05.293Z,13.50
2023-02-02T02:13:05.247Z,15.80
2023-02-02T02:14:05.219Z,15.70
2023-02-02T02:15:05.205Z,14.80
2023-02-02T02:16:05.220Z,13.30
2023-02-02T02:17:05.201Z,15.40
2023-02-02T02:18:05.153Z,14.60
2023-02-02T02:19:05.131Z,12.70
2023-02-02T02:20:05.124Z,13.30
2023-02-02T02:21:05.115Z,14.10
2023-02-02T02:22:06.088Z,13.00
2023-02-02T02:23:05.065Z,13.30
2023-02-02T02:24:05.039Z,16.00
2023-02-02T02:25:06.023Z,16.30
2023-02-02T02:26:05.047Z,13.80
2023-02-02T02:27:04.990Z,12.20
2023-02-02T02:28:04.968Z,13.80
2023-02-02T02:29:04.952Z,13.40
2023-02-02T02:30:04.935Z,12.60
2023-02-02T02:31:05.033Z,16.60
2023-02-02T02:32:04.896Z,13.50
2023-02-02T02:33:04.879Z,10.50
2023-02-02T02:34:04.867Z,12.90
2023-02-02T02:35:04.849Z,13.50
2023-02-02T02:36:04.856Z,14.30
2023-02-02T02:37:04.810Z,15.30
2023-02-02T02:38:04.806Z,13.40
2023-02-02T02:39:04.778Z,11.40
2023-02-02T02:40:04.754Z,16.40
2023-02-02T02:41:04.802Z,14.90
2023-02-02T02:42:04.719Z,10.60
2023-02-02T02:43:04.702Z,11.40
2023-02-02T02:44:04.682Z,11.40
2023-02-02T02:45:04.668Z,11.80
2023-02-02T02:46:04.720Z,12.90
2023-02-02T02:47:04.624Z,14.00
2023-02-02T02:48:04.611Z,12.50
2023-02-02T02:49:04.589Z,10.90
2023-02-02T02:50:04.573Z,12.20
2023-02-02T02:51:04.580Z,13.70
2023-02-02T02:52:04.536Z,12.70
2023-02-02T02:53:04.519Z,12.60
2023-02-02T02:54:04.501Z,13.90
2023-02-02T02:55:04.484Z,16.50
2023-02-02T02:56:04.496Z,11.60
2023-02-02T02:57:04.450Z,13.10
2023-02-02T02:58:04.462Z,13.40
2023-02-02T02:59:04.413Z,12.80
2023-02-02T03:00:04.417Z,11.50
2023-02-02T03:01:04.410Z,11.00
2023-02-02T03:02:04.371Z,10.20
2023-02-02T03:03:04.342Z,10.00
2023-02-02T03:04:04.321Z,13.20
2023-02-02T03:05:04.301Z,11.40
2023-02-02T03:06:04.313Z,11.60
2023-02-02T03:07:04.269Z,11.00
2023-02-02T03:08:04.244Z,13.10
2023-02-02T03:09:04.230Z,17.20
2023-02-02T03:10:04.210Z,12.30
2023-02-02T03:11:04.221Z,14.50
2023-02-02T03:12:04.175Z,11.50
2023-02-02T03:13:04.153Z,15.30
2023-02-02T03:14:04.135Z,16.70
2023-02-02T03:15:04.121Z,13.30
2023-02-02T03:16:04.160Z,9.30
2023-02-02T03:17:04.082Z,10.50
2023-02-02T03:18:04.072Z,11.30
2023-02-02T03:19:04.047Z,13.60
2023-02-02T03:20:04.032Z,12.90
2023-02-02T03:21:04.043Z,14.90
2023-02-02T03:22:03.991Z,14.10
2023-02-02T03:23:03.983Z,12.90
2023-02-02T03:24:03.952Z,11.60
2023-02-02T03:25:03.946Z,14.70
2023-02-02T03:26:03.945Z,10.40
2023-02-02T03:27:03.897Z,10.60
2023-02-02T03:28:03.897Z,14.40
2023-02-02T03:29:03.867Z,15.10
2023-02-02T03:30:03.848Z,12.30
2023-02-02T03:31:03.940Z,12.70
2023-02-02T03:32:03.818Z,13.50
2023-02-02T03:33:03.790Z,13.40
2023-02-02T03:34:03.782Z,11.70
2023-02-02T03:35:03.749Z,14.00
2023-02-02T03:36:03.758Z,12.80
2023-02-02T03:37:03.719Z,12.50
2023-02-02T03:38:03.692Z,10.30
2023-02-02T03:39:03.679Z,10.00
2023-02-02T03:40:03.662Z,9.70
2023-02-02T03:41:03.668Z,13.70
2023-02-02T03:42:03.630Z,12.10
2023-02-02T03:43:03.604Z,12.70
2023-02-02T03:44:03.580Z,17.10
2023-02-02T03:45:03.574Z,8.90
2023-02-02T03:46:03.625Z,7.90
2023-02-02T03:47:03.533Z,12.50
2023-02-02T03:48:03.515Z,12.30
2023-02-02T03:49:03.498Z,13.20
2023-02-02T03:50:03.476Z,14.20
2023-02-02T03:51:03.489Z,9.50
2023-02-02T03:52:03.442Z,12.50
2023-02-02T03:53:03.436Z,13.70
2023-02-02T03:54:03.409Z,12.20
2023-02-02T03:55:03.391Z,11.30
2023-02-02T03:56:03.398Z,11.30
2023-02-02T03:57:03.355Z,14.20
2023-02-02T03:58:03.332Z,9.70
2023-02-02T03:59:03.314Z,11.40
2023-02-02T04:00:03.298Z,18.80
2023-02-02T04:01:03.306Z,13.80
2023-02-02T04:02:03.264Z,11.00
2023-02-02T04:03:03.326Z,16.20
2023-02-02T04:04:03.231Z,10.60
2023-02-02T04:05:03.202Z,12.40
2023-02-02T04:06:03.220Z,9.10
2023-02-02T04:07:03.177Z,11.50
2023-02-02T04:08:03.147Z,13.20
2023-02-02T04:09:03.125Z,10.90
2023-02-02T04:10:03.129Z,13.80
2023-02-02T04:11:03.125Z,14.40
2023-02-02T04:12:03.076Z,11.70
2023-02-02T04:13:03.068Z,9.00
2023-02-02T04:14:03.039Z,13.50
2023-02-02T04:15:03.008Z,19.70
2023-02-02T04:16:03.079Z,11.40
2023-02-02T04:17:02.975Z,14.40
2023-02-02T04:18:02.961Z,14.80
2023-02-02T04:19:02.943Z,8.50
2023-02-02T04:20:02.928Z,13.90
2023-02-02T04:21:02.943Z,11.60
2023-02-02T04:22:02.886Z,12.30
2023-02-02T04:23:02.874Z,12.90
2023-02-02T04:24:02.852Z,15.40
2023-02-02T04:25:02.845Z,11.50
2023-02-02T04:26:02.850Z,13.60
2023-02-02T04:27:02.797Z,14.80
2023-02-02T04:28:02.775Z,8.40
2023-02-02T04:29:02.755Z,14.80
2023-02-02T04:30:02.770Z,14.10
2023-02-02T04:31:02.795Z,10.10
2023-02-02T04:32:02.711Z,13.20
2023-02-02T04:33:02.687Z,11.20
2023-02-02T04:34:02.670Z,14.70
2023-02-02T04:35:02.649Z,11.00
2023-02-02T04:36:02.638Z,12.50
2023-02-02T04:37:02.644Z,12.30
2023-02-02T04:38:02.591Z,14.80
2023-02-02T04:39:02.573Z,15.90
2023-02-02T04:40:02.626Z,12.60
2023-02-02T04:41:02.539Z,16.90
2023-02-02T04:42:02.548Z,14.90
2023-02-02T04:43:02.502Z,13.00
2023-02-02T04:44:02.484Z,12.00
2023-02-02T04:45:02.497Z,17.40
2023-02-02T04:46:02.484Z,21.30
2023-02-02T04:47:02.463Z,27.70
2023-02-02T04:48:02.413Z,17.70
2023-02-02T04:49:02.396Z,28.70
2023-02-02T04:50:02.369Z,26.00
2023-02-02T04:51:02.363Z,17.80
2023-02-02T04:52:02.363Z,17.80
2023-02-02T04:53:02.323Z,11.30
2023-02-02T04:54:02.303Z,17.00
2023-02-02T04:55:02.280Z,20.90
2023-02-02T04:56:02.264Z,16.30
2023-02-02T04:57:02.272Z,23.70
2023-02-02T04:58:02.228Z,17.00
2023-02-02T04:59:02.209Z,20.60
2023-02-02T05:00:02.197Z,19.80
2023-02-02T05:01:02.231Z,26.00
2023-02-02T05:02:02.180Z,26.80
2023-02-02T05:03:02.148Z,22.00
2023-02-02T05:04:02.130Z,19.30
2023-02-02T05:05:02.097Z,17.10
2023-02-02T05:06:02.080Z,17.80
2023-02-02T05:07:02.089Z,14.40
2023-02-02T05:08:02.042Z,18.80
2023-02-02T05:09:02.032Z,12.20
2023-02-02T05:10:02.027Z,18.50
2023-02-02T05:11:01.991Z,13.10
2023-02-02T05:12:02.001Z,14.00
2023-02-02T05:13:01.952Z,16.80
2023-02-02T05:14:01.933Z,16.00
2023-02-02T05:15:01.935Z,17.60
2023-02-02T05:16:01.893Z,18.00
2023-02-02T05:17:01.956Z,9.60
2023-02-02T05:18:01.856Z,15.40
2023-02-02T05:19:01.850Z,16.80
2023-02-02T05:20:01.832Z,14.10
2023-02-02T05:21:01.803Z,18.40
2023-02-02T05:22:01.819Z,13.50
2023-02-02T05:23:01.770Z,18.30
2023-02-02T05:24:01.751Z,13.90
2023-02-02T05:25:01.732Z,13.50
2023-02-02T05:26:01.715Z,16.40
2023-02-02T05:27:01.738Z,15.40
2023-02-02T05:28:01.678Z,12.20
2023-02-02T05:29:01.663Z,11.20
2023-02-02T05:30:01.636Z,12.40
2023-02-02T05:31:01.661Z,12.30
2023-02-02T05:32:01.726Z,11.30
2023-02-02T05:33:01.594Z,13.50
2023-02-02T05:34:01.589Z,14.30
2023-02-02T05:35:01.562Z,17.90
2023-02-02T05:36:01.555Z,13.10
2023-02-02T05:37:01.557Z,14.90
2023-02-02T05:38:01.496Z,16.50
2023-02-02T05:39:01.479Z,17.10
2023-02-02T05:40:01.461Z,14.10
2023-02-02T05:41:01.446Z,12.00
2023-02-02T05:42:01.455Z,13.40
2023-02-02T05:43:01.411Z,13.70
2023-02-02T05:44:01.391Z,14.80
2023-02-02T05:45:01.376Z,14.90
2023-02-02T05:46:01.398Z,14.40
2023-02-02T05:47:01.367Z,12.70
2023-02-02T05:48:01.319Z,18.50
2023-02-02T05:49:01.303Z,16.80
2023-02-02T05:50:01.306Z,18.60
2023-02-02T05:51:01.274Z,13.80
2023-02-02T05:52:01.279Z,14.70
2023-02-02T05:53:01.230Z,13.40
2023-02-02T05:54:01.264Z,14.50
2023-02-02T05:55:01.188Z,22.50
2023-02-02T05:56:01.178Z,14.20
2023-02-02T05:57:01.196Z,15.10
2023-02-02T05:58:01.141Z,17.40
2023-02-02T05:59:01.120Z,14.40
2023-02-02T06:00:01.117Z,13.20
2023-02-02T06:01:01.097Z,13.90
2023-02-02T06:02:01.100Z,14.10
2023-02-02T06:03:01.086Z,16.60
2023-02-02T06:04:01.093Z,21.00
2023-02-02T06:05:01.011Z,16.80
2023-02-02T06:06:00.993Z,22.00
2023-02-02T06:07:01.002Z,21.20
2023-02-02T06:08:00.957Z,12.10
2023-02-02T06:09:00.936Z,17.20
2023-02-02T06:10:00.925Z,16.50
2023-02-02T06:11:00.899Z,12.10
2023-02-02T06:12:00.909Z,16.00
2023-02-02T06:13:00.862Z,19.10
2023-02-02T06:14:00.852Z,12.30
2023-02-02T06:15:00.824Z,13.00
2023-02-02T06:16:00.837Z,17.00
2023-02-02T06:17:00.821Z,17.30
2023-02-02T06:18:00.775Z,16.20
2023-02-02T06:19:00.768Z,14.00
2023-02-02T06:20:00.729Z,15.90
2023-02-02T06:21:00.735Z,18.20
2023-02-02T06:22:00.723Z,12.70
2023-02-02T06:23:00.673Z,18.80
2023-02-02T06:24:00.657Z,16.20
2023-02-02T06:25:00.642Z,16.90
2023-02-02T06:26:00.618Z,21.80
2023-02-02T06:27:00.635Z,18.90
2023-02-02T06:28:00.592Z,18.50
2023-02-02T06:29:00.562Z,18.00
2023-02-02T06:30:00.548Z,13.40
2023-02-02T06:31:00.643Z,16.00
2023-02-02T06:32:00.632Z,15.20
2023-02-02T06:33:00.496Z,14.80
2023-02-02T06:34:00.486Z,14.40
2023-02-02T06:35:00.457Z,12.80
2023-02-02T06:36:00.435Z,11.70
2023-02-02T06:37:00.448Z,10.90
2023-02-02T06:38:00.402Z,12.80
2023-02-02T06:39:00.404Z,12.20
2023-02-02T06:40:00.363Z,13.40
2023-02-02T06:41:00.386Z,12.00
2023-02-02T06:42:08.840Z,22.90
2023-02-02T06:43:02.307Z,17.30
2023-02-02T06:44:00.302Z,15.70
2023-02-02T06:45:00.272Z,16.40
2023-02-02T06:46:00.318Z,18.20
2023-02-02T06:47:00.270Z,17.20
2023-02-02T06:48:00.218Z,19.00
2023-02-02T06:49:00.196Z,16.80
2023-02-02T06:50:00.213Z,13.00
2023-02-02T06:51:00.168Z,16.40
2023-02-02T06:52:00.175Z,14.70
2023-02-02T06:53:00.124Z,20.40
2023-02-02T06:54:00.119Z,16.60
2023-02-02T06:55:00.107Z,11.90
2023-02-02T06:56:00.094Z,21.70
2023-02-02T06:57:00.101Z,14.20
2023-02-02T06:58:00.037Z,14.90
2023-02-02T06:59:00.022Z,11.50
2023-02-02T07:00:00.010Z,9.00
2023-02-02T07:00:59.982Z,10.50
2023-02-02T07:01:59.997Z,14.00
2023-02-02T07:03:00.003Z,9.50
2023-02-02T07:03:59.929Z,11.80
2023-02-02T07:04:59.905Z,9.20
2023-02-02T07:05:59.881Z,8.50
2023-02-02T07:06:59.903Z,10.50
2023-02-02T07:07:59.850Z,7.50
2023-02-02T07:09:03.075Z,8.80
2023-02-02T07:10:00.812Z,7.50
2023-02-02T07:11:15.605Z,6.50
2023-02-02T07:12:00.821Z,8.10
2023-02-02T07:12:59.756Z,6.30
2023-02-02T07:13:59.736Z,7.10
2023-02-02T07:14:59.727Z,8.00
2023-02-02T07:15:59.726Z,9.30
2023-02-02T07:16:59.709Z,8.20
2023-02-02T07:17:59.703Z,7.50
2023-02-02T07:18:59.640Z,7.80
2023-02-02T07:19:59.636Z,12.70
2023-02-02T07:20:59.607Z,17.90
2023-02-02T07:21:59.585Z,12.10
2023-02-02T07:22:59.598Z,17.00
2023-02-02T07:23:59.547Z,12.50
2023-02-02T07:24:59.531Z,12.30
2023-02-02T07:25:59.512Z,17.30
2023-02-02T07:26:59.502Z,15.90
2023-02-02T07:27:59.581Z,14.10
2023-02-02T07:28:59.458Z,12.20
2023-02-02T07:29:59.458Z,13.30
2023-02-02T07:30:59.472Z,12.80
2023-02-02T07:31:59.444Z,11.10
2023-02-02T07:32:59.419Z,10.60
2023-02-02T07:33:59.405Z,12.40
2023-02-02T07:34:59.348Z,10.70
2023-02-02T07:35:59.337Z,9.30
2023-02-02T07:36:59.315Z,7.80
2023-02-02T07:37:59.326Z,8.70
2023-02-02T07:38:59.281Z,8.90
2023-02-02T07:39:59.265Z,14.40
2023-02-02T07:40:59.240Z,10.10
2023-02-02T07:41:59.223Z,10.10
2023-02-02T07:42:59.237Z,7.80
2023-02-02T07:43:59.277Z,7.00
2023-02-02T07:44:59.164Z,8.40
2023-02-02T07:45:59.145Z,6.20
2023-02-02T07:46:59.159Z,6.40
2023-02-02T07:47:59.163Z,6.60
2023-02-02T07:48:59.093Z,9.70
2023-02-02T07:49:59.077Z,10.30
2023-02-02T07:50:59.044Z,7.90
2023-02-02T07:52:00.043Z,7.30
2023-02-02T07:52:59.054Z,6.10
2023-02-02T07:53:58.999Z,9.10
2023-02-02T07:55:13.556Z,7.20
2023-02-02T07:56:00.965Z,8.80
2023-02-02T07:56:58.943Z,6.70
2023-02-02T07:57:59.006Z,5.40
2023-02-02T07:58:58.923Z,4.70
2023-02-02T07:59:58.889Z,6.30
2023-02-02T08:00:58.911Z,5.40
2023-02-02T08:01:58.883Z,4.90
2023-02-02T08:02:58.884Z,5.40
2023-02-02T08:03:58.817Z,5.60
2023-02-02T08:04:58.789Z,4.80
2023-02-02T08:05:58.774Z,5.50
2023-02-02T08:06:58.755Z,4.40
2023-02-02T08:07:58.769Z,5.80
2023-02-02T08:08:58.727Z,5.20
2023-02-02T08:09:58.696Z,6.90
2023-02-02T08:10:58.682Z,5.90
2023-02-02T08:11:58.689Z,9.40
2023-02-02T08:12:58.677Z,7.00
2023-02-02T08:13:58.626Z,6.60
2023-02-02T08:14:58.603Z,6.40
2023-02-02T08:15:58.599Z,6.70
2023-02-02T08:16:58.569Z,7.30
2023-02-02T08:17:58.575Z,7.40
2023-02-02T08:18:58.534Z,7.90
2023-02-02T08:19:58.511Z,6.70
2023-02-02T08:20:58.490Z,7.00
2023-02-02T08:21:58.473Z,9.20
2023-02-02T08:22:58.482Z,6.70
2023-02-02T08:23:58.430Z,8.80
2023-02-02T08:24:59.427Z,8.70
2023-02-02T08:25:58.398Z,9.20
2023-02-02T08:26:58.424Z,11.30
2023-02-02T08:27:58.397Z,57.90
2023-02-02T08:28:58.346Z,192.60
2023-02-02T08:29:58.330Z,231.90
2023-02-02T08:30:58.363Z,344.50
2023-02-02T08:31:58.321Z,133.80
2023-02-02T08:32:59.302Z,192.00
2023-02-02T08:33:58.254Z,145.70
2023-02-02T08:34:58.241Z,124.10
2023-02-02T08:35:58.214Z,132.60
2023-02-02T08:36:58.199Z,51.20
2023-02-02T08:37:58.209Z,23.60
2023-02-02T08:38:58.170Z,8.90
2023-02-02T08:39:58.173Z,14.70
2023-02-02T08:40:58.124Z,9.20
2023-02-02T08:41:58.116Z,9.10
2023-02-02T08:42:58.112Z,6.70
2023-02-02T08:43:58.079Z,6.90
2023-02-02T08:46:03.434Z,6.70
2023-02-02T08:46:13.026Z,5.60
2023-02-02T08:46:59.074Z,5.30
2023-02-02T08:48:10.864Z,5.70
2023-02-02T08:48:59.980Z,6.10
2023-02-02T08:49:57.973Z,12.90
2023-02-02T08:50:57.946Z,13.70
2023-02-02T08:51:57.927Z,13.40
2023-02-02T08:52:57.936Z,18.20
2023-02-02T08:53:57.895Z,20.70
2023-02-02T08:54:57.868Z,18.90
2023-02-02T08:55:57.847Z,25.30
2023-02-02T08:56:57.834Z,30.00
2023-02-02T08:57:57.843Z,41.20
2023-02-02T08:58:57.802Z,62.90
2023-02-02T08:59:57.774Z,53.20
2023-02-02T09:00:57.775Z,59.00
2023-02-02T09:01:57.774Z,40.30
2023-02-02T09:02:57.751Z,30.00
2023-02-02T09:03:57.705Z,33.60
2023-02-02T09:04:57.677Z,35.90
2023-02-02T09:05:57.668Z,40.20
2023-02-02T09:06:57.650Z,43.90
2023-02-02T09:07:57.657Z,30.60
2023-02-02T09:08:57.639Z,14.80
2023-02-02T09:09:57.592Z,15.60
2023-02-02T09:10:57.570Z,27.40
2023-02-02T09:11:57.560Z,58.20
2023-02-02T09:12:57.565Z,30.70
2023-02-02T09:13:57.512Z,25.30
2023-02-02T09:14:57.500Z,20.50
2023-02-02T09:15:57.483Z,13.90
2023-02-02T09:16:57.514Z,13.70
2023-02-02T09:17:57.469Z,12.30
2023-02-02T09:18:57.418Z,12.50
2023-02-02T09:19:57.400Z,10.10
2023-02-02T09:20:57.385Z,14.80
2023-02-02T09:21:57.358Z,11.10
2023-02-02T09:22:57.378Z,8.00
2023-02-02T09:23:57.323Z,9.00
2023-02-02T09:24:57.309Z,8.70
2023-02-02T09:25:57.283Z,6.60
2023-02-02T09:26:57.356Z,4.90
2023-02-02T09:27:57.285Z,3.50
2023-02-02T09:28:57.231Z,2.30
2023-02-02T09:29:57.209Z,1.70
2023-02-02T09:30:57.238Z,1.90
2023-02-02T09:31:57.248Z,1.80
2023-02-02T09:32:57.206Z,2.80
2023-02-02T09:33:57.132Z,1.70
2023-02-02T09:34:57.116Z,2.00
2023-02-02T09:35:57.099Z,1.40
2023-02-02T09:36:57.080Z,1.30
2023-02-02T09:37:57.096Z,1.70
2023-02-02T09:38:57.044Z,1.20
2023-02-02T09:39:57.025Z,1.30
2023-02-02T09:40:57.004Z,1.50
2023-02-02T09:41:56.987Z,2.10
2023-02-02T09:42:57.004Z,3.00
2023-02-02T09:43:56.953Z,2.30
2023-02-02T09:44:56.942Z,1.90
2023-02-02T09:45:56.974Z,2.20
2023-02-02T09:46:56.899Z,1.50
2023-02-02T09:47:56.910Z,3.80
2023-02-02T09:48:56.858Z,3.10
2023-02-02T09:49:56.841Z,2.20
2023-02-02T09:50:56.834Z,2.40
2023-02-02T09:51:56.872Z,2.10
2023-02-02T09:52:56.818Z,1.60
2023-02-02T09:53:56.774Z,2.60
2023-02-02T09:54:56.759Z,1.40
2023-02-02T09:55:56.739Z,1.70
2023-02-02T09:56:56.713Z,2.20
2023-02-02T09:57:56.806Z,1.90
2023-02-02T09:58:58.824Z,1.80
2023-02-02T09:59:57.686Z,1.90
2023-02-02T10:00:56.702Z,1.50
2023-02-02T10:01:56.626Z,1.60
2023-02-02T10:02:56.633Z,1.50
2023-02-02T10:03:56.653Z,1.30
2023-02-02T10:04:56.566Z,2.10
2023-02-02T10:05:56.549Z,1.40
2023-02-02T10:06:56.538Z,0.80
2023-02-02T10:07:56.538Z,1.30
2023-02-02T10:08:56.508Z,1.10
2023-02-02T10:09:57.471Z,1.50
2023-02-02T10:10:56.448Z,0.90
2023-02-02T10:11:56.443Z,0.60
2023-02-02T10:12:56.451Z,0.60
2023-02-02T10:13:56.411Z,0.60
2023-02-02T10:14:56.494Z,0.90
2023-02-02T10:15:56.579Z,0.70
2023-02-02T10:16:56.345Z,1.40
2023-02-02T10:17:56.326Z,2.20
2023-02-02T10:18:56.338Z,1.50
2023-02-02T10:19:56.295Z,1.90
2023-02-02T10:20:56.290Z,1.70
2023-02-02T10:21:56.257Z,1.20
2023-02-02T10:22:56.268Z,1.20
2023-02-02T10:23:56.224Z,1.70
2023-02-02T10:24:56.198Z,1.80
2023-02-02T10:25:57.195Z,1.50
2023-02-02T10:26:56.273Z,1.70
2023-02-02T10:27:56.173Z,3.10
2023-02-02T10:28:56.160Z,4.90
2023-02-02T10:29:56.117Z,5.90
2023-02-02T10:30:56.173Z,7.00
2023-02-02T10:31:56.169Z,5.20
2023-02-02T10:32:56.057Z,10.00
2023-02-02T10:33:56.080Z,8.10
2023-02-02T10:35:10.855Z,6.10
2023-02-02T10:35:58.011Z,5.30
2023-02-02T10:36:55.992Z,3.70
2023-02-02T10:37:55.974Z,3.20
2023-02-02T10:38:55.989Z,5.00
2023-02-02T10:39:55.970Z,5.50
2023-02-02T10:40:55.913Z,5.50
2023-02-02T10:41:55.907Z,8.10
2023-02-02T10:42:57.219Z,5.10
2023-02-02T10:43:56.891Z,3.40
2023-02-02T10:44:55.841Z,2.00
2023-02-02T10:45:55.852Z,1.80
2023-02-02T10:46:55.801Z,1.90
2023-02-02T10:47:55.786Z,1.60
2023-02-02T10:48:55.797Z,1.50
2023-02-02T10:49:56.331Z,2.80
2023-02-02T10:50:56.759Z,1.70
2023-02-02T10:51:55.723Z,1.20
2023-02-02T10:52:55.714Z,1.30
2023-02-02T10:53:55.707Z,1.10
2023-02-02T10:54:58.219Z,1.20
2023-02-02T10:55:56.638Z,1.00
2023-02-02T10:56:55.625Z,0.80
2023-02-02T10:57:55.608Z,0.70
2023-02-02T10:58:55.615Z,0.90
2023-02-02T10:59:55.569Z,1.40
2023-02-02T11:00:55.552Z,2.60
2023-02-02T11:01:55.591Z,2.00
2023-02-02T11:02:55.604Z,2.00
2023-02-02T11:03:55.527Z,1.50
2023-02-02T11:04:55.487Z,1.50
2023-02-02T11:05:55.461Z,1.30
2023-02-02T11:06:55.440Z,1.50
2023-02-02T11:07:55.441Z,1.50
2023-02-02T11:08:55.432Z,1.90
2023-02-02T11:09:55.384Z,1.40
2023-02-02T11:10:55.362Z,1.40
2023-02-02T11:11:55.391Z,1.10
2023-02-02T11:12:55.329Z,1.60
2023-02-02T11:13:55.936Z,1.40
2023-02-02T11:14:55.291Z,1.30
2023-02-02T11:15:55.302Z,1.60
2023-02-02T11:16:55.276Z,1.60
2023-02-02T11:17:55.239Z,2.10
2023-02-02T11:18:55.245Z,1.90
2023-02-02T11:19:55.196Z,1.90
2023-02-02T11:20:55.192Z,1.80
2023-02-02T11:21:55.158Z,1.90
2023-02-02T11:22:55.142Z,1.60
2023-02-02T11:23:55.158Z,1.60
2023-02-02T11:24:55.113Z,1.80
2023-02-02T11:25:55.090Z,2.30
2023-02-02T11:26:55.133Z,2.50
2023-02-02T11:27:55.057Z,2.60
2023-02-02T11:28:55.065Z,2.10
2023-02-02T11:29:55.012Z,1.50
2023-02-02T11:30:55.109Z,1.50
2023-02-02T11:31:55.988Z,1.60
2023-02-02T11:32:54.957Z,1.80
2023-02-02T11:33:54.967Z,1.70
2023-02-02T11:34:54.923Z,2.00
2023-02-02T11:35:54.904Z,1.90
2023-02-02T11:36:54.890Z,2.00
2023-02-02T11:37:54.863Z,3.90
2023-02-02T11:38:54.875Z,4.60
2023-02-02T11:39:54.828Z,7.00
2023-02-02T11:40:54.816Z,6.40
2023-02-02T11:41:54.795Z,7.30
2023-02-02T11:42:54.775Z,8.70
2023-02-02T11:43:54.785Z,8.80
2023-02-02T11:44:54.743Z,7.80
2023-02-02T11:45:54.726Z,7.60
2023-02-02T11:46:54.724Z,6.30
2023-02-02T11:47:54.689Z,7.00
2023-02-02T11:48:54.702Z,7.40
2023-02-02T11:49:54.681Z,5.90
2023-02-02T11:50:54.674Z,9.00
2023-02-02T11:51:54.620Z,4.20
2023-02-02T11:52:54.616Z,7.60
2023-02-02T11:53:54.580Z,4.80
2023-02-02T11:54:54.587Z,3.80
2023-02-02T11:55:54.542Z,4.30
2023-02-02T11:56:54.542Z,1.80
2023-02-02T11:57:54.503Z,1.40
2023-02-02T11:58:54.515Z,2.60
2023-02-02T11:59:54.470Z,2.00
2023-02-02T12:00:54.447Z,3.20
2023-02-02T12:01:54.467Z,3.60
2023-02-02T12:02:54.415Z,2.90
2023-02-02T12:03:54.452Z,1.70
2023-02-02T12:04:54.387Z,1.40
2023-02-02T12:05:54.359Z,3.00
2023-02-02T12:06:54.348Z,1.70
2023-02-02T12:07:54.329Z,1.10
2023-02-02T12:08:54.340Z,1.00
2023-02-02T12:09:54.299Z,2.30
2023-02-02T12:10:54.278Z,1.90
2023-02-02T12:11:54.255Z,2.00
2023-02-02T12:12:54.248Z,1.80
2023-02-02T12:13:54.275Z,1.90
2023-02-02T12:14:54.206Z,1.60
2023-02-02T12:15:54.259Z,1.60
2023-02-02T12:16:54.166Z,45.00
2023-02-02T12:17:54.157Z,15.50
2023-02-02T12:18:54.164Z,72.00
2023-02-02T12:19:54.121Z,11.00
2023-02-02T12:20:54.106Z,15.20
2023-02-02T12:21:54.081Z,18.40
2023-02-02T12:22:54.070Z,18.20
2023-02-02T12:23:54.092Z,52.90
2023-02-02T12:24:54.036Z,122.40
2023-02-02T12:25:54.015Z,23.90
2023-02-02T12:26:54.014Z,13.50
2023-02-02T12:27:53.983Z,6.80
2023-02-02T12:28:53.988Z,3.70
2023-02-02T12:29:53.947Z,4.30
2023-02-02T12:30:54.014Z,4.10
2023-02-02T12:31:53.939Z,4.30
2023-02-02T12:32:53.890Z,5.30
2023-02-02T12:33:53.905Z,4.50
2023-02-02T12:34:53.853Z,5.10
2023-02-02T12:35:53.837Z,3.40
2023-02-02T12:36:53.820Z,2.70
2023-02-02T12:37:53.806Z,3.80
2023-02-02T12:38:53.835Z,4.60
2023-02-02T12:39:53.764Z,3.20
2023-02-02T12:40:53.739Z,5.40
2023-02-02T12:41:53.723Z,4.30
2023-02-02T12:42:53.709Z,2.50
2023-02-02T12:43:53.720Z,5.30
2023-02-02T12:44:53.671Z,2.50
2023-02-02T12:45:53.691Z,4.40
2023-02-02T12:46:53.639Z,4.00
2023-02-02T12:47:53.623Z,3.30
2023-02-02T12:48:53.636Z,3.40
2023-02-02T12:49:53.590Z,4.10
2023-02-02T12:50:53.585Z,4.30
2023-02-02T12:51:53.561Z,2.60
2023-02-02T12:52:53.550Z,4.70
2023-02-02T12:54:32.726Z,4.80
2023-02-02T12:54:57.357Z,6.20
2023-02-02T12:55:53.481Z,5.70
2023-02-02T12:56:53.470Z,6.80
2023-02-02T12:57:53.453Z,5.20
2023-02-02T12:58:53.460Z,3.10
2023-02-02T12:59:53.414Z,5.10
2023-02-02T13:00:53.405Z,5.80
2023-02-02T13:01:53.422Z,5.80